ADDS METAR Data INFO
IDs: Format: Raw Decoded Include TAF

Data at: 0508 UTC 21 Feb 2018

KCDH 201515Z AUTO 19006KT 8SM FEW027 OVC060 22/17 A3008 RMK AO2
KCDH 201455Z AUTO 17007KT 7SM BKN060 OVC110 21/17 A3008 RMK AO2
KCDH 201435Z AUTO 17007KT 8SM FEW019 BKN065 BKN110 21/17 A3007 RMK AO2
KCDH 201415Z AUTO 17008KT 8SM BKN019 BKN060 OVC110 21/17 A3007 RMK AO2
KCDH 201355Z AUTO 17004KT 8SM OVC018 20/17 A3006 RMK AO2
KCDH 201335Z AUTO 19005KT 7SM BKN019 20/17 A3006 RMK AO2
KCDH 201315Z AUTO 18005KT 7SM FEW020 FEW120 20/16 A3005 RMK AO2
KCDH 201255Z AUTO 18007KT 7SM SCT019 SCT027 BKN120 20/16 A3003 RMK AO2
KCDH 201235Z AUTO 17007G15KT 9SM BKN019 OVC026 20/16 A3003 RMK AO2
KCDH 201215Z AUTO 17009KT 8SM SCT018 SCT024 BKN034 20/16 A3003 RMK AO2
KCDH 201155Z AUTO 17010G16KT 9SM SCT018 SCT029 SCT034 20/16 A3002 RMK AO2
KCDH 201135Z AUTO 16012KT 9SM BKN018 BKN029 20/16 A3001 RMK AO2
KCDH 201115Z AUTO 16014G19KT 9SM SCT016 SCT021 20/16 A3000 RMK AO2
KCDH 201055Z AUTO 16015KT 8SM BKN017 BKN110 20/16 A2999 RMK AO2
KCDH 201035Z AUTO 15011KT 8SM SCT018 BKN110 20/16 A2999 RMK AO2
KCDH 201015Z AUTO 16007KT 9SM OVC019 20/16 A2999 RMK AO2
KCDH 200955Z AUTO 16010KT 9SM OVC019 20/16 A2999 RMK AO2
KCDH 200935Z AUTO 17007G15KT 8SM BKN020 BKN026 OVC035 20/16 A2999 RMK AO2
KCDH 200915Z AUTO 16012G17KT 8SM BKN021 BKN025 BKN035 21/16 A2998 RMK AO2
KCDH 200855Z AUTO 15012G19KT 8SM BKN024 OVC035 21/16 A2998 RMK AO2
KCDH 200835Z AUTO 16010G17KT 10SM SCT024 BKN031 OVC120 21/16 A2999 RMK AO2
KCDH 200815Z AUTO 16012G18KT 10SM BKN024 BKN031 OVC047 21/16 A2999 RMK AO2
KCDH 200755Z AUTO 16011G17KT 10SM SCT025 BKN034 BKN040 21/16 A3000 RMK AO2
KCDH 200735Z AUTO 17011G17KT 10SM FEW031 SCT038 BKN055 21/15 A3000 RMK AO2
KCDH 200715Z AUTO 17014G21KT 9SM OVC055 22/15 A3000 RMK AO2
KCDH 200655Z AUTO 17012G22KT 10SM SCT050 OVC055 22/15 A3000 RMK AO2
KCDH 200635Z AUTO 18012G19KT 10SM BKN050 BKN065 BKN090 22/15 A3000 RMK AO2
KCDH 200615Z AUTO 16011G19KT 10SM SCT060 SCT090 22/14 A2999 RMK AO2
KCDH 200555Z AUTO 17011G16KT 9SM OVC060 22/14 A3000 RMK AO2
KCDH 200535Z AUTO 17008G15KT 10SM BKN055 OVC095 22/14 A2999 RMK AO2
KCDH 200515Z AUTO 17013KT 10SM SCT060 BKN065 BKN095 22/14 A2999 RMK AO2
KCDH 200455Z AUTO 17011KT 10SM BKN065 22/14 A2999 RMK AO2
KCDH 200435Z AUTO 17008G15KT 10SM FEW055 FEW070 22/14 A2999 RMK AO2
KCDH 200415Z AUTO 17010G15KT 10SM FEW034 FEW043 FEW050 22/14 A2998 RMK AO2
KCDH 200355Z AUTO 16008KT 10SM FEW033 FEW042 FEW049 21/14 A2998 RMK AO2
KCDH 200335Z AUTO 16008KT 10SM CLR 21/13 A2998 RMK AO2
KCDH 200315Z AUTO 16008KT 10SM CLR 22/13 A2998 RMK AO2
KCDH 200255Z AUTO 17008G14KT 10SM FEW070 22/13 A2997 RMK AO2
KCDH 200235Z AUTO 16011KT 10SM SCT070 22/13 A2996 RMK AO2
KCDH 200215Z AUTO 16009KT 10SM FEW075 22/13 A2996 RMK AO2
KCDH 200155Z AUTO 16007KT 10SM FEW075 22/13 A2996 RMK AO2
KCDH 200135Z AUTO 16006KT 10SM CLR 22/12 A2996 RMK AO2
KCDH 200115Z AUTO 17006KT 10SM FEW050 FEW070 22/12 A2996 RMK AO2
KCDH 200055Z AUTO 16006KT 10SM FEW049 22/12 A2996 RMK AO2
KCDH 200035Z AUTO 17004KT 10SM CLR 23/12 A2996 RMK AO2
KCDH 200015Z AUTO 17005KT 9SM CLR 24/12 A2995 RMK AO2
KCDH 192355Z AUTO 17006KT 9SM FEW065 24/12 A2995 RMK AO2
KCDH 192335Z AUTO 17006KT 9SM CLR 25/12 A2995 RMK AO2
KCDH 192315Z AUTO 18006G15KT 10SM CLR 25/12 A2994 RMK AO2
KCDH 192255Z AUTO 18010KT 9SM CLR 26/12 A2994 RMK AO2
KCDH 192235Z AUTO 17010G18KT 10SM CLR 26/12 A2993 RMK AO2
KCDH 192215Z AUTO 18012G18KT 9SM CLR 27/12 A2993 RMK AO2
KCDH 192155Z AUTO 19013G19KT 9SM CLR 27/12 A2993 RMK AO2
KCDH 192135Z AUTO 17014KT 9SM CLR 27/12 A2993 RMK AO2
KCDH 192115Z AUTO 17013G22KT 9SM CLR 27/13 A2993 RMK AO2
KCDH 192055Z AUTO 17010G21KT 9SM CLR 27/14 A2993 RMK AO2
KCDH 192035Z AUTO 15014G21KT 9SM CLR 27/14 A2994 RMK AO2
KCDH 192015Z AUTO 18008G19KT 9SM FEW038 FEW045 27/15 A2995 RMK AO2
KCDH 191955Z AUTO 17014G24KT 9SM FEW039 SCT045 25/14 A2996 RMK AO2
KCDH 191935Z AUTO 17015G21KT 9SM FEW034 FEW043 25/14 A2997 RMK AO2
KCDH 191915Z AUTO 19012G20KT 9SM SCT033 SCT041 24/15 A2998 RMK AO2
KCDH 191855Z AUTO 17016KT 9SM BKN033 BKN043 25/15 A2999 RMK AO2
KCDH 191835Z AUTO 19015KT 9SM BKN033 BKN044 24/15 A3000 RMK AO2
KCDH 191815Z AUTO 19010G19KT 9SM BKN032 BKN039 24/15 A3001 RMK AO2
KCDH 191755Z AUTO 18011G18KT 8SM SCT033 24/15 A3001 RMK AO2
KCDH 191735Z AUTO 19012G17KT 9SM BKN030 BKN036 23/15 A3002 RMK AO2
KCDH 191715Z AUTO 19012G23KT 9SM BKN025 BKN032 22/15 A3003 RMK AO2